createdAt,value
2022-10-09T00:00:50.511Z,7.25
2022-10-09T00:03:17.922Z,6.92
2022-10-09T00:05:45.187Z,7.06
2022-10-09T00:08:11.951Z,6.93
2022-10-09T00:10:42.956Z,6.89
2022-10-09T00:13:09.977Z,6.96
2022-10-09T00:15:40.929Z,7.04
2022-10-09T00:18:09.537Z,7.33
2022-10-09T00:20:38.093Z,6.89
2022-10-09T00:23:04.976Z,7.45
2022-10-09T00:25:31.825Z,7.29
2022-10-09T00:27:59.417Z,7.27
2022-10-09T00:30:26.296Z,6.85
2022-10-09T00:32:53.376Z,7.09
2022-10-09T00:35:20.345Z,6.98
2022-10-09T00:37:46.960Z,7.24
2022-10-09T00:40:13.301Z,7.49
2022-10-09T00:42:40.276Z,7.88
2022-10-09T00:45:14.722Z,8.04
2022-10-09T00:47:48.222Z,8.02
2022-10-09T00:50:22.563Z,7.81
2022-10-09T00:52:52.360Z,7.63
2022-10-09T00:55:19.783Z,7.95
2022-10-09T00:57:46.329Z,8.24
2022-10-09T01:00:13.558Z,8.21
2022-10-09T01:02:40.374Z,8.33
2022-10-09T01:05:08.424Z,8.22
2022-10-09T01:08:03.308Z,7.93
2022-10-09T01:10:50.139Z,7.90
2022-10-09T01:14:02.074Z,7.93
2022-10-09T01:16:33.124Z,8.03
2022-10-09T01:19:11.162Z,8.09
2022-10-09T01:21:58.035Z,8.09
2022-10-09T01:24:38.833Z,8.20
2022-10-09T01:27:14.137Z,8.02
2022-10-09T01:29:45.759Z,8.28
2022-10-09T01:32:17.240Z,8.33
2022-10-09T01:34:44.462Z,8.32
2022-10-09T01:37:13.229Z,8.08
2022-10-09T01:39:41.285Z,8.31
2022-10-09T01:42:08.660Z,8.42
2022-10-09T01:44:35.066Z,8.42
2022-10-09T01:47:02.333Z,8.33
2022-10-09T01:49:43.888Z,8.23
2022-10-09T01:52:58.078Z,8.26
2022-10-09T01:55:43.384Z,8.25
2022-10-09T01:58:28.581Z,8.31
2022-10-09T02:01:04.676Z,8.17
2022-10-09T02:03:33.013Z,8.45
2022-10-09T02:06:01.370Z,8.39
2022-10-09T02:08:30.747Z,8.07
2022-10-09T02:11:01.534Z,8.02
2022-10-09T02:13:29.049Z,8.12
2022-10-09T02:16:11.364Z,8.12
2022-10-09T02:18:45.802Z,8.02
2022-10-09T02:21:25.924Z,8.14
2022-10-09T02:23:54.857Z,7.92
2022-10-09T02:26:21.470Z,7.94
2022-10-09T02:28:47.939Z,7.76
2022-10-09T02:31:26.952Z,7.95
2022-10-09T02:34:02.239Z,7.83
2022-10-09T02:36:30.195Z,7.74
2022-10-09T02:38:57.202Z,7.94
2022-10-09T02:41:24.552Z,7.62
2022-10-09T02:43:51.527Z,7.83
2022-10-09T02:46:18.538Z,7.85
2022-10-09T02:48:45.174Z,7.97
2022-10-09T02:51:11.561Z,8.11
2022-10-09T02:53:38.277Z,7.71
2022-10-09T02:56:04.972Z,7.57
2022-10-09T02:58:33.072Z,7.91
2022-10-09T03:00:59.392Z,7.56
2022-10-09T03:03:26.232Z,7.79
2022-10-09T03:06:24.717Z,7.84
2022-10-09T03:08:52.930Z,7.80
2022-10-09T03:11:21.105Z,7.59
2022-10-09T03:13:47.782Z,7.43
2022-10-09T03:16:20.365Z,7.46
2022-10-09T03:18:48.655Z,7.30
2022-10-09T03:21:18.459Z,7.16
2022-10-09T03:23:45.049Z,7.04
2022-10-09T03:26:14.535Z,7.18
2022-10-09T03:28:44.544Z,7.41
2022-10-09T03:31:22.375Z,7.23
2022-10-09T03:33:57.694Z,6.94
2022-10-09T03:36:24.409Z,7.09
2022-10-09T03:38:50.979Z,7.26
2022-10-09T03:41:17.325Z,7.02
2022-10-09T03:43:43.680Z,7.24
2022-10-09T03:46:10.984Z,6.98
2022-10-09T03:48:38.131Z,6.91
2022-10-09T03:51:04.559Z,7.04
2022-10-09T03:53:31.341Z,7.06
2022-10-09T03:55:57.707Z,6.94
2022-10-09T03:58:24.324Z,6.95
2022-10-09T04:00:52.389Z,7.22
2022-10-09T04:03:19.416Z,7.42
2022-10-09T04:05:46.073Z,6.99
2022-10-09T04:08:12.748Z,7.30
2022-10-09T04:10:39.111Z,7.31
2022-10-09T04:13:05.750Z,7.42
2022-10-09T04:15:32.155Z,7.02
2022-10-09T04:17:58.669Z,7.26
2022-10-09T04:20:25.008Z,7.31
2022-10-09T04:22:51.643Z,6.95
2022-10-09T04:25:18.115Z,6.99
2022-10-09T04:27:44.871Z,6.85
2022-10-09T04:30:11.517Z,6.81
2022-10-09T04:32:37.882Z,6.86
2022-10-09T04:35:05.023Z,6.43
2022-10-09T04:37:31.440Z,6.81
2022-10-09T04:39:57.746Z,6.85
2022-10-09T04:42:24.098Z,6.76
2022-10-09T04:44:50.432Z,7.03
2022-10-09T04:47:17.684Z,7.08
2022-10-09T04:49:44.032Z,6.79
2022-10-09T04:52:10.411Z,6.83
2022-10-09T04:54:36.738Z,6.80
2022-10-09T04:57:03.370Z,6.98
2022-10-09T04:59:29.704Z,6.54
2022-10-09T05:01:56.180Z,6.84
2022-10-09T05:04:22.563Z,6.71
2022-10-09T05:06:49.080Z,6.63
2022-10-09T05:09:15.416Z,6.68
2022-10-09T05:11:42.807Z,6.14
2022-10-09T05:14:10.430Z,6.18
2022-10-09T05:16:49.673Z,6.53
2022-10-09T05:19:23.378Z,6.70
2022-10-09T05:21:49.890Z,6.74
2022-10-09T05:24:16.206Z,6.65
2022-10-09T05:26:42.650Z,6.71
2022-10-09T05:29:09.010Z,6.89
2022-10-09T05:31:35.591Z,6.84
2022-10-09T05:34:02.046Z,6.64
2022-10-09T05:36:28.721Z,6.72
2022-10-09T05:38:56.351Z,6.75
2022-10-09T05:41:22.996Z,6.66
2022-10-09T05:43:49.807Z,6.75
2022-10-09T05:46:24.782Z,6.73
2022-10-09T05:48:53.880Z,6.95
2022-10-09T05:51:25.842Z,6.65
2022-10-09T05:53:52.803Z,6.75
2022-10-09T05:56:30.883Z,6.14
2022-10-09T05:58:59.717Z,6.52
2022-10-09T06:01:28.820Z,6.61
2022-10-09T06:03:57.019Z,6.44
2022-10-09T06:06:27.065Z,6.78
2022-10-09T06:08:53.833Z,6.90
2022-10-09T06:11:23.134Z,6.87
2022-10-09T06:13:50.082Z,6.78
2022-10-09T06:16:17.618Z,6.92
2022-10-09T06:18:49.712Z,6.70
2022-10-09T06:21:16.645Z,6.70
2022-10-09T06:23:43.170Z,6.81
2022-10-09T06:26:12.891Z,6.84
2022-10-09T06:28:39.941Z,6.75
2022-10-09T06:31:14.844Z,6.83
2022-10-09T06:33:42.737Z,6.90
2022-10-09T06:36:11.343Z,6.84
2022-10-09T06:38:38.876Z,6.79
2022-10-09T06:41:08.451Z,6.94
2022-10-09T06:43:35.104Z,6.96
2022-10-09T06:46:07.199Z,7.03
2022-10-09T06:48:35.288Z,6.91
2022-10-09T06:51:14.004Z,6.95
2022-10-09T06:53:42.799Z,6.89
2022-10-09T06:56:10.616Z,6.88
2022-10-09T06:58:38.182Z,6.89
2022-10-09T07:01:13.592Z,6.86
2022-10-09T07:03:42.122Z,7.01
2022-10-09T07:06:15.919Z,7.07
2022-10-09T07:08:45.236Z,7.01
2022-10-09T07:11:14.609Z,7.10
2022-10-09T07:13:42.351Z,7.25
2022-10-09T07:16:10.745Z,7.08
2022-10-09T07:18:38.488Z,7.04
2022-10-09T07:21:08.359Z,7.15
2022-10-09T07:23:35.992Z,7.35
2022-10-09T07:26:08.778Z,7.31
2022-10-09T07:28:35.374Z,7.31
2022-10-09T07:31:05.838Z,7.43
2022-10-09T07:33:32.244Z,7.22
2022-10-09T07:36:00.658Z,7.43
2022-10-09T07:38:27.507Z,7.55
2022-10-09T07:40:54.522Z,7.82
2022-10-09T07:43:22.259Z,7.87
2022-10-09T07:45:48.674Z,7.92
2022-10-09T07:48:15.196Z,7.91
2022-10-09T07:50:41.853Z,7.97
2022-10-09T07:53:08.737Z,7.95
2022-10-09T07:55:35.861Z,7.96
2022-10-09T07:58:02.275Z,7.83
2022-10-09T08:00:28.675Z,7.86
2022-10-09T08:02:55.312Z,7.97
2022-10-09T08:05:21.696Z,8.09
2022-10-09T08:07:48.007Z,8.11
2022-10-09T08:10:14.359Z,8.14
2022-10-09T08:12:40.753Z,8.24
2022-10-09T08:15:07.630Z,8.31
2022-10-09T08:17:34.004Z,8.40
2022-10-09T08:20:00.912Z,8.52
2022-10-09T08:22:27.227Z,8.43
2022-10-09T08:24:53.691Z,8.58
2022-10-09T08:27:20.003Z,8.69
2022-10-09T08:29:46.517Z,8.67
2022-10-09T08:32:12.853Z,8.73
2022-10-09T08:34:39.263Z,8.72
2022-10-09T08:37:05.639Z,8.70
2022-10-09T08:39:32.500Z,8.73
2022-10-09T08:42:03.436Z,8.77
2022-10-09T08:44:42.871Z,8.87
2022-10-09T08:47:20.183Z,8.87
2022-10-09T08:49:55.643Z,8.98
2022-10-09T08:52:54.176Z,8.92
2022-10-09T08:55:35.714Z,8.95
2022-10-09T08:58:04.783Z,9.01
2022-10-09T09:00:45.394Z,9.19
2022-10-09T09:03:39.086Z,9.22
2022-10-09T09:06:16.155Z,9.21
2022-10-09T09:08:58.880Z,9.30
2022-10-09T09:11:57.433Z,9.37
2022-10-09T09:14:39.312Z,9.37
2022-10-09T09:17:18.938Z,9.63
2022-10-09T09:20:16.387Z,9.60
2022-10-09T09:22:48.812Z,9.62
2022-10-09T09:25:22.872Z,9.67
2022-10-09T09:27:50.176Z,9.67
2022-10-09T09:30:34.359Z,9.74
2022-10-09T09:33:24.722Z,9.90
2022-10-09T09:36:20.676Z,10.09
2022-10-09T09:39:32.441Z,10.11
2022-10-09T09:41:35.846Z,10.09
2022-10-09T09:44:02.198Z,10.12
2022-10-09T09:46:32.159Z,10.18
2022-10-09T09:48:58.796Z,10.32
2022-10-09T09:51:29.925Z,10.38
2022-10-09T09:54:06.220Z,10.42
2022-10-09T09:56:53.221Z,10.47
2022-10-09T09:59:37.932Z,10.59
2022-10-09T10:02:14.786Z,10.57
2022-10-09T10:04:57.554Z,10.57
2022-10-09T10:07:32.939Z,10.63
2022-10-09T10:10:25.995Z,10.81
2022-10-09T10:12:52.701Z,10.77
2022-10-09T10:15:26.465Z,10.82
2022-10-09T10:17:58.370Z,10.85
2022-10-09T10:20:26.099Z,10.95
2022-10-09T10:22:57.596Z,10.98
2022-10-09T10:25:31.266Z,11.09
2022-10-09T10:28:03.776Z,11.12
2022-10-09T10:30:30.750Z,11.19
2022-10-09T10:33:21.985Z,11.34
2022-10-09T10:35:54.099Z,11.59
2022-10-09T10:38:30.976Z,11.63
2022-10-09T10:41:13.812Z,11.64
2022-10-09T10:43:59.970Z,11.70
2022-10-09T10:46:38.294Z,11.85
2022-10-09T10:49:08.026Z,12.15
2022-10-09T10:51:53.941Z,12.43
2022-10-09T10:54:35.897Z,12.19
2022-10-09T10:57:20.761Z,12.06
2022-10-09T11:00:07.284Z,12.09
2022-10-09T11:02:52.420Z,12.24
2022-10-09T11:05:30.019Z,12.20
2022-10-09T11:08:14.186Z,12.07
2022-10-09T11:11:03.632Z,12.47
2022-10-09T11:13:34.895Z,12.50
2022-10-09T11:16:06.586Z,13.26
2022-10-09T11:18:32.938Z,13.55
2022-10-09T11:21:29.312Z,12.82
2022-10-09T11:24:04.162Z,12.81
2022-10-09T11:26:41.510Z,13.46
2022-10-09T11:29:19.862Z,14.05
2022-10-09T11:31:58.963Z,14.38
2022-10-09T11:34:33.769Z,14.75
2022-10-09T11:37:02.416Z,14.78
2022-10-09T11:39:32.379Z,14.68
2022-10-09T11:42:00.392Z,14.12
2022-10-09T11:44:53.853Z,13.39
2022-10-09T11:47:35.040Z,13.23
2022-10-09T11:50:16.624Z,13.30
2022-10-09T11:53:00.488Z,13.66
2022-10-09T11:55:29.689Z,13.90
2022-10-09T11:58:07.993Z,13.99
2022-10-09T12:00:36.562Z,14.25
2022-10-09T12:03:06.148Z,15.19
2022-10-09T12:05:41.356Z,15.65
2022-10-09T12:08:15.407Z,15.73
2022-10-09T12:10:55.091Z,15.28
2022-10-09T12:13:28.890Z,14.39
2022-10-09T12:15:57.841Z,13.91
2022-10-09T12:18:31.803Z,13.80
2022-10-09T12:21:01.447Z,13.82
2022-10-09T12:23:31.625Z,14.74
2022-10-09T12:26:00.376Z,14.74
2022-10-09T12:28:34.409Z,14.74
2022-10-09T12:31:03.398Z,14.53
2022-10-09T12:33:51.452Z,15.72
2022-10-09T12:36:29.617Z,15.95
2022-10-09T12:38:56.240Z,16.03
2022-10-09T12:41:29.762Z,16.64
2022-10-09T12:43:57.539Z,15.53
2022-10-09T12:46:36.357Z,15.09
2022-10-09T12:49:14.120Z,15.25
2022-10-09T12:51:40.485Z,15.43
2022-10-09T12:54:09.625Z,15.84
2022-10-09T12:56:38.275Z,16.07
2022-10-09T12:59:06.896Z,16.03
2022-10-09T13:01:34.803Z,16.40
2022-10-09T13:04:04.472Z,16.31
2022-10-09T13:06:41.980Z,16.74
2022-10-09T13:09:19.467Z,16.32
2022-10-09T13:11:53.464Z,16.41
2022-10-09T13:14:42.387Z,16.43
2022-10-09T13:17:29.551Z,16.34
2022-10-09T13:19:59.270Z,15.98
2022-10-09T13:22:29.935Z,15.32
2022-10-09T13:24:58.983Z,15.19
2022-10-09T13:27:29.115Z,14.96
2022-10-09T13:29:56.232Z,14.43
2022-10-09T13:32:24.247Z,14.97
2022-10-09T13:34:54.993Z,14.90
2022-10-09T13:37:23.484Z,14.70
2022-10-09T13:39:57.584Z,14.39
2022-10-09T13:42:29.975Z,14.47
2022-10-09T13:44:56.792Z,14.29
2022-10-09T13:47:24.625Z,14.91
2022-10-09T13:49:51.226Z,15.35
2022-10-09T13:52:17.666Z,15.32
2022-10-09T13:54:44.106Z,15.01
2022-10-09T13:57:10.449Z,15.16
2022-10-09T13:59:37.893Z,15.20
2022-10-09T14:02:04.310Z,15.14
2022-10-09T14:04:30.734Z,15.62
2022-10-09T14:06:57.285Z,15.62
2022-10-09T14:09:23.982Z,15.33
2022-10-09T14:11:50.300Z,15.21
2022-10-09T14:14:16.783Z,15.18
2022-10-09T14:16:43.218Z,15.21
2022-10-09T14:19:09.992Z,15.02
2022-10-09T14:21:36.307Z,15.31
2022-10-09T14:24:03.475Z,14.78
2022-10-09T14:26:30.455Z,14.86
2022-10-09T14:28:59.977Z,14.59
2022-10-09T14:31:26.621Z,14.22
2022-10-09T14:33:56.727Z,14.77
2022-10-09T14:36:23.443Z,15.04
2022-10-09T14:38:49.948Z,14.23
2022-10-09T14:41:17.906Z,14.30
2022-10-09T14:43:45.390Z,14.53
2022-10-09T14:46:17.206Z,14.33
2022-10-09T14:48:45.494Z,14.60
2022-10-09T14:51:14.277Z,14.46
2022-10-09T14:53:40.776Z,14.60
2022-10-09T14:56:11.989Z,14.49
2022-10-09T14:58:39.440Z,14.39
2022-10-09T15:01:06.775Z,14.33
2022-10-09T15:03:35.331Z,14.25
2022-10-09T15:06:05.617Z,14.37
2022-10-09T15:08:33.511Z,14.26
2022-10-09T15:11:01.479Z,14.12
2022-10-09T15:13:28.580Z,13.93
2022-10-09T15:16:21.663Z,13.75
2022-10-09T15:18:53.119Z,13.54
2022-10-09T15:21:25.061Z,13.41
2022-10-09T15:23:54.768Z,13.13
2022-10-09T15:26:23.261Z,13.54
2022-10-09T15:28:49.861Z,13.51
2022-10-09T15:31:22.464Z,13.10
2022-10-09T15:33:53.049Z,13.05
2022-10-09T15:36:21.164Z,13.22
2022-10-09T15:38:48.147Z,13.28
2022-10-09T15:41:25.528Z,12.76
2022-10-09T15:43:53.875Z,12.73
2022-10-09T15:46:20.287Z,12.71
2022-10-09T15:48:47.076Z,12.72
2022-10-09T15:51:13.489Z,12.53
2022-10-09T15:53:45.129Z,12.47
2022-10-09T15:56:13.843Z,12.10
2022-10-09T15:58:40.636Z,12.17
2022-10-09T16:01:09.321Z,11.77
2022-10-09T16:03:37.238Z,11.87
2022-10-09T16:06:06.807Z,11.72
2022-10-09T16:08:34.263Z,11.49
2022-10-09T16:11:04.228Z,11.56
2022-10-09T16:13:30.616Z,11.53
2022-10-09T16:15:56.941Z,11.63
2022-10-09T16:18:24.455Z,11.22
2022-10-09T16:20:50.972Z,11.31
2022-10-09T16:23:18.153Z,11.29
2022-10-09T16:25:56.992Z,11.72
2022-10-09T16:28:23.524Z,11.30
2022-10-09T16:30:49.976Z,11.24
2022-10-09T16:33:16.335Z,11.44
2022-10-09T16:35:42.673Z,11.11
2022-10-09T16:38:09.101Z,10.94
2022-10-09T16:41:00.876Z,11.20
2022-10-09T16:43:22.209Z,11.13
2022-10-09T16:45:48.549Z,10.71
2022-10-09T16:48:15.088Z,10.63
2022-10-09T16:50:42.343Z,10.37
2022-10-09T16:53:09.320Z,10.66
2022-10-09T16:55:36.186Z,10.64
2022-10-09T16:58:02.863Z,10.58
2022-10-09T17:00:29.566Z,10.53
2022-10-09T17:02:56.667Z,10.53
2022-10-09T17:05:25.320Z,10.50
2022-10-09T17:07:52.282Z,10.41
2022-10-09T17:10:18.810Z,10.62
2022-10-09T17:12:45.182Z,10.63
2022-10-09T17:15:12.659Z,10.09
2022-10-09T17:17:39.599Z,10.08
2022-10-09T17:20:06.405Z,10.35
2022-10-09T17:22:32.755Z,10.16
2022-10-09T17:24:59.089Z,9.89
2022-10-09T17:27:25.627Z,9.89
2022-10-09T17:29:52.048Z,9.59
2022-10-09T17:32:18.449Z,9.81
2022-10-09T17:34:45.867Z,10.00
2022-10-09T17:37:12.888Z,9.77
2022-10-09T17:39:39.309Z,9.66
2022-10-09T17:42:05.665Z,9.73
2022-10-09T17:44:32.068Z,9.73
2022-10-09T17:46:58.452Z,9.62
2022-10-09T17:49:24.802Z,9.67
2022-10-09T17:51:52.764Z,9.93
2022-10-09T17:54:19.105Z,9.86
2022-10-09T17:56:45.966Z,9.85
2022-10-09T17:59:12.465Z,9.86
2022-10-09T18:01:39.216Z,9.70
2022-10-09T18:04:05.570Z,9.85
2022-10-09T18:06:33.517Z,9.80
2022-10-09T18:09:00.958Z,9.49
2022-10-09T18:11:28.444Z,9.55
2022-10-09T18:13:54.964Z,9.41
2022-10-09T18:16:32.693Z,9.63
2022-10-09T18:19:07.945Z,9.31
2022-10-09T18:21:35.440Z,9.42
2022-10-09T18:24:02.236Z,9.31
2022-10-09T18:26:28.757Z,9.36
2022-10-09T18:28:55.088Z,9.24
2022-10-09T18:31:23.847Z,9.17
2022-10-09T18:33:50.852Z,9.28
2022-10-09T18:36:19.988Z,9.24
2022-10-09T18:38:52.405Z,9.22
2022-10-09T18:41:20.894Z,9.61
2022-10-09T18:43:47.975Z,9.60
2022-10-09T18:46:16.132Z,9.51
2022-10-09T18:48:42.938Z,9.31
2022-10-09T18:51:15.028Z,9.23
2022-10-09T18:53:43.416Z,8.84
2022-10-09T18:56:11.920Z,9.00
2022-10-09T18:58:41.042Z,9.03
2022-10-09T19:01:08.048Z,9.02
2022-10-09T19:03:36.390Z,8.99
2022-10-09T19:06:04.178Z,8.96
2022-10-09T19:08:30.490Z,8.83
2022-10-09T19:10:56.853Z,8.84
2022-10-09T19:13:23.445Z,8.69
2022-10-09T19:15:54.640Z,8.48
2022-10-09T19:18:22.245Z,8.38
2022-10-09T19:20:49.301Z,8.72
2022-10-09T19:23:16.801Z,8.51
2022-10-09T19:25:52.639Z,8.93
2022-10-09T19:28:19.919Z,9.07
2022-10-09T19:30:47.228Z,8.84
2022-10-09T19:33:14.743Z,8.93
2022-10-09T19:35:48.826Z,9.13
2022-10-09T19:38:16.037Z,9.35
2022-10-09T19:40:43.259Z,9.32
2022-10-09T19:43:10.496Z,9.64
2022-10-09T19:45:36.834Z,9.33
2022-10-09T19:48:03.350Z,9.63
2022-10-09T19:50:30.217Z,9.54
2022-10-09T19:52:57.383Z,9.66
2022-10-09T19:55:27.706Z,9.63
2022-10-09T19:57:58.229Z,9.66
2022-10-09T20:00:24.788Z,9.79
2022-10-09T20:02:51.454Z,9.75
2022-10-09T20:05:18.063Z,9.76
2022-10-09T20:07:44.731Z,9.89
2022-10-09T20:10:11.183Z,9.97
2022-10-09T20:12:37.808Z,9.91
2022-10-09T20:15:04.491Z,9.79
2022-10-09T20:17:30.840Z,9.89
2022-10-09T20:19:57.144Z,9.70
2022-10-09T20:22:23.818Z,9.90
2022-10-09T20:24:52.906Z,9.97
2022-10-09T20:27:19.447Z,9.96
2022-10-09T20:29:45.762Z,10.00
2022-10-09T20:32:12.232Z,9.88
2022-10-09T20:34:38.656Z,9.92
2022-10-09T20:37:05.056Z,9.98
2022-10-09T20:39:31.382Z,9.94
2022-10-09T20:41:57.800Z,9.97
2022-10-09T20:44:24.115Z,10.09
2022-10-09T20:46:53.057Z,9.97
2022-10-09T20:49:19.376Z,9.78
2022-10-09T20:51:45.728Z,9.75
2022-10-09T20:54:16.232Z,9.72
2022-10-09T20:56:44.909Z,9.81
2022-10-09T20:59:11.759Z,9.58
2022-10-09T21:01:38.295Z,9.65
2022-10-09T21:04:05.559Z,9.64
2022-10-09T21:06:32.737Z,9.88
2022-10-09T21:08:59.058Z,9.85
2022-10-09T21:11:25.511Z,9.65
2022-10-09T21:13:52.033Z,9.68
2022-10-09T21:16:21.938Z,9.67
2022-10-09T21:18:52.483Z,9.57
2022-10-09T21:21:19.295Z,9.39
2022-10-09T21:23:45.946Z,9.26
2022-10-09T21:26:14.712Z,9.44
2022-10-09T21:28:42.003Z,9.37
2022-10-09T21:31:14.820Z,9.43
2022-10-09T21:33:41.247Z,9.28
2022-10-09T21:36:13.050Z,9.35
2022-10-09T21:38:39.375Z,9.15
2022-10-09T21:41:05.731Z,9.12
2022-10-09T21:43:32.069Z,9.35
2022-10-09T21:45:58.426Z,9.23
2022-10-09T21:48:24.747Z,9.14
2022-10-09T21:50:51.395Z,9.05
2022-10-09T21:53:17.723Z,8.92
2022-10-09T21:55:44.116Z,9.03
2022-10-09T21:58:10.675Z,8.96
2022-10-09T22:00:37.194Z,9.08
2022-10-09T22:03:03.609Z,8.93
2022-10-09T22:05:30.014Z,8.99
2022-10-09T22:07:56.605Z,8.81
2022-10-09T22:10:23.186Z,9.04
2022-10-09T22:12:50.666Z,8.91
2022-10-09T22:15:17.339Z,8.86
2022-10-09T22:17:43.747Z,8.97
2022-10-09T22:20:10.267Z,8.86
2022-10-09T22:22:36.617Z,8.89
2022-10-09T22:25:03.176Z,8.94
2022-10-09T22:27:29.492Z,9.10
2022-10-09T22:29:56.000Z,8.82
2022-10-09T22:32:22.311Z,8.89
2022-10-09T22:34:50.893Z,8.98
2022-10-09T22:37:17.255Z,8.86
2022-10-09T22:39:43.838Z,8.87
2022-10-09T22:42:10.156Z,8.98
2022-10-09T22:44:36.510Z,8.82
2022-10-09T22:47:02.851Z,8.48
2022-10-09T22:49:29.212Z,8.80
2022-10-09T22:51:55.569Z,8.85
2022-10-09T22:54:22.146Z,8.60
2022-10-09T22:56:48.522Z,8.61
2022-10-09T22:59:18.191Z,8.57
2022-10-09T23:01:54.560Z,8.60
2022-10-09T23:04:22.089Z,8.51
2022-10-09T23:06:54.752Z,8.63
2022-10-09T23:09:23.061Z,8.37
2022-10-09T23:11:49.603Z,8.35
2022-10-09T23:14:16.334Z,8.48
2022-10-09T23:16:42.969Z,8.24
2022-10-09T23:19:10.210Z,8.33
2022-10-09T23:21:38.426Z,8.41
2022-10-09T23:24:06.302Z,8.35
2022-10-09T23:26:33.893Z,8.50
2022-10-09T23:29:03.586Z,8.38
2022-10-09T23:31:30.206Z,8.46
2022-10-09T23:33:57.408Z,8.60
2022-10-09T23:36:26.839Z,8.34
2022-10-09T23:38:53.723Z,8.51
2022-10-09T23:41:22.675Z,8.51
2022-10-09T23:43:49.686Z,8.46
2022-10-09T23:46:22.116Z,8.59
2022-10-09T23:48:50.256Z,8.37
2022-10-09T23:51:19.113Z,8.42
2022-10-09T23:53:45.943Z,8.40
2022-10-09T23:56:18.167Z,8.32
2022-10-09T23:58:45.481Z,8.33
